Time;durP1;ratioP1;P1;durP2;ratioP2;P2;SDS_P1;SDS_P2;PMS_P1;PMS_P2;Temp;Humidity;BMP_temperature;BMP_pressure;BME280_temperature;BME280_humidity;BME280_pressure;Samples;Min_cycle;Max_cycle;Signal;HPM_P1;HPM_P2
2022/11/13 00:01:45;;;;;;;16.20;14.70;;;11.20;99.90;;;;;;5032407;28;20184;-70
2022/11/13 00:04:11;;;;;;;17.83;16.03;;;11.20;99.90;;;;;;5033374;28;20266;-70
2022/11/13 00:06:37;;;;;;;17.10;15.50;;;11.20;99.90;;;;;;5032152;28;20211;-70
2022/11/13 00:09:02;;;;;;;19.23;15.57;;;11.10;99.90;;;;;;5033833;28;20944;-70
2022/11/13 00:11:28;;;;;;;16.73;15.13;;;11.10;99.90;;;;;;5032523;28;20174;-70
2022/11/13 00:13:54;;;;;;;17.27;15.57;;;11.10;99.90;;;;;;5033120;28;20743;-69
2022/11/13 00:16:20;;;;;;;16.60;14.53;;;11.10;99.90;;;;;;5015012;28;20513;-70
2022/11/13 00:18:46;;;;;;;16.20;14.60;;;11.20;99.90;;;;;;5033333;28;20170;-70
2022/11/13 00:21:24;;;;;;;16.80;15.17;;;11.00;99.90;;;;;;5033016;28;20430;-70
2022/11/13 00:23:50;;;;;;;17.60;15.80;;;11.10;99.90;;;;;;5048551;28;20441;-70
2022/11/13 00:26:17;;;;;;;17.93;16.03;;;11.10;99.90;;;;;;5032774;28;20403;-73
2022/11/13 00:28:43;;;;;;;14.93;13.53;;;11.10;99.90;;;;;;5032929;28;20467;-70
2022/11/13 00:31:12;;;;;;;17.27;15.60;;;11.10;99.90;;;;;;5033052;28;20448;-70
2022/11/13 00:33:38;;;;;;;16.23;14.60;;;11.00;99.90;;;;;;5032029;28;20457;-70
2022/11/13 00:36:07;;;;;;;16.70;15.17;;;11.10;99.90;;;;;;5032678;28;20444;-70
2022/11/13 00:38:33;;;;;;;15.77;14.13;;;11.00;99.90;;;;;;5032166;28;20819;-70
2022/11/13 00:40:59;;;;;;;15.80;14.20;;;11.00;99.90;;;;;;5017302;28;20464;-70
2022/11/13 00:43:26;;;;;;;15.30;13.90;;;11.00;99.90;;;;;;5050985;28;20779;-70
2022/11/13 00:45:52;;;;;;;16.87;15.27;;;11.00;99.90;;;;;;5052580;28;20405;-70
2022/11/13 00:48:18;;;;;;;16.00;14.30;;;11.10;99.90;;;;;;5052360;28;20413;-73
2022/11/13 00:50:44;;;;;;;17.23;15.57;;;10.90;99.90;;;;;;5034360;28;20404;-70
2022/11/13 00:53:10;;;;;;;16.90;14.57;;;10.90;99.90;;;;;;5049879;28;20608;-70
2022/11/13 00:55:36;;;;;;;16.33;14.53;;;10.80;99.90;;;;;;5050075;28;20531;-70
2022/11/13 00:58:03;;;;;;;16.93;15.23;;;10.80;99.90;;;;;;5032048;28;20193;-70
2022/11/13 01:00:30;;;;;;;19.13;16.17;;;10.80;99.90;;;;;;5031438;28;20189;-70
2022/11/13 01:03:00;;;;;;;17.00;15.20;;;10.80;99.90;;;;;;5032465;28;20411;-69
2022/11/13 01:05:26;;;;;;;17.23;15.00;;;10.80;99.90;;;;;;5031670;28;20396;-70
2022/11/13 01:07:52;;;;;;;16.43;14.87;;;10.80;99.90;;;;;;5031978;28;20456;-69
2022/11/13 01:10:18;;;;;;;16.40;14.87;;;10.70;99.90;;;;;;5032093;28;20412;-70
2022/11/13 01:12:44;;;;;;;17.40;15.70;;;10.70;99.90;;;;;;5031681;28;20209;-70
2022/11/13 01:15:09;;;;;;;17.73;15.83;;;10.70;99.90;;;;;;4998994;28;20431;-70
2022/11/13 01:17:35;;;;;;;16.60;15.00;;;10.70;99.90;;;;;;5031462;28;20176;-70
2022/11/13 01:20:05;;;;;;;16.60;14.70;;;10.80;99.90;;;;;;5032289;28;20203;-70
2022/11/13 01:22:31;;;;;;;15.93;14.20;;;10.70;99.90;;;;;;5036762;28;20949;-70
2022/11/13 01:24:59;;;;;;;16.63;15.13;;;10.70;99.90;;;;;;5052345;28;20408;-70
2022/11/13 01:27:25;;;;;;;16.33;14.73;;;10.70;99.90;;;;;;5033536;28;20457;-71
2022/11/13 01:29:51;;;;;;;15.30;13.90;;;10.70;99.90;;;;;;5052125;28;20883;-70
2022/11/13 01:32:16;;;;;;;16.63;14.40;;;10.70;99.90;;;;;;5051149;28;20185;-70
2022/11/13 01:34:42;;;;;;;15.60;14.20;;;10.70;99.90;;;;;;5033599;28;20179;-70
2022/11/13 01:37:08;;;;;;;15.10;13.70;;;10.70;99.90;;;;;;5052060;28;20185;-70
2022/11/13 01:39:33;;;;;;;14.60;13.17;;;10.60;99.90;;;;;;5033396;28;20225;-70
2022/11/13 01:41:59;;;;;;;15.10;13.60;;;10.60;99.90;;;;;;5052053;28;20184;-70
2022/11/13 01:44:45;;;;;;;16.07;14.40;;;10.60;99.90;;;;;;5051233;28;20214;-71
2022/11/13 01:47:11;;;;;;;15.30;13.60;;;10.70;99.90;;;;;;5051922;28;20397;-70
2022/11/13 01:49:39;;;;;;;14.27;12.97;;;10.60;99.90;;;;;;5050017;28;20932;-70
2022/11/13 01:52:16;;;;;;;15.17;13.73;;;10.50;99.90;;;;;;5050958;28;20169;-70
2022/11/13 01:54:55;;;;;;;15.80;13.97;;;10.60;99.90;;;;;;5053471;28;20428;-70
2022/11/13 01:57:22;;;;;;;14.97;13.57;;;10.50;99.90;;;;;;5055552;28;20441;-73
2022/11/13 01:59:51;;;;;;;16.13;14.17;;;10.50;99.90;;;;;;5055008;28;20407;-70
2022/11/13 02:02:17;;;;;;;14.00;12.60;;;10.50;99.90;;;;;;5055659;28;20396;-70
2022/11/13 02:04:44;;;;;;;14.83;13.00;;;10.40;99.90;;;;;;5054590;28;20410;-70
2022/11/13 02:07:13;;;;;;;13.97;12.57;;;10.40;99.90;;;;;;5021749;28;20553;-70
2022/11/13 02:09:45;;;;;;;15.50;14.00;;;10.40;99.90;;;;;;5015107;28;20471;-70
2022/11/13 02:12:15;;;;;;;15.20;13.73;;;10.40;99.90;;;;;;5014829;28;20845;-70
2022/11/13 02:14:44;;;;;;;14.93;13.60;;;10.30;99.90;;;;;;5014651;28;20481;-70
2022/11/13 02:17:15;;;;;;;15.37;13.80;;;10.30;99.90;;;;;;5015707;28;20413;-70
2022/11/13 02:19:49;;;;;;;18.13;14.10;;;10.30;99.90;;;;;;5014906;28;20469;-70
2022/11/13 02:22:30;;;;;;;14.70;13.40;;;10.30;99.90;;;;;;5015692;28;20937;-70
2022/11/13 02:24:58;;;;;;;14.27;12.93;;;10.20;99.90;;;;;;5016251;28;20482;-70
2022/11/13 02:27:38;;;;;;;15.23;13.87;;;10.20;99.90;;;;;;5015223;28;20410;-73
2022/11/13 02:30:31;;;;;;;15.03;13.53;;;10.20;99.90;;;;;;5015620;28;20399;-70
2022/11/13 02:32:58;;;;;;;14.93;13.63;;;10.10;99.90;;;;;;5013725;28;20467;-70
2022/11/13 02:35:28;;;;;;;14.37;13.00;;;10.10;99.90;;;;;;5014000;28;20474;-73
2022/11/13 02:37:55;;;;;;;14.30;13.00;;;10.10;99.90;;;;;;5015104;28;20414;-69
2022/11/13 02:40:21;;;;;;;14.00;12.60;;;10.10;99.90;;;;;;5015830;28;20422;-70
2022/11/13 02:42:46;;;;;;;13.03;11.80;;;10.10;99.90;;;;;;5014540;28;20502;-70
2022/11/13 02:45:12;;;;;;;13.37;11.97;;;10.00;99.90;;;;;;5015187;28;20408;-70
2022/11/13 02:47:38;;;;;;;13.33;12.03;;;10.10;99.90;;;;;;5013219;28;20175;-70
2022/11/13 02:50:05;;;;;;;12.90;11.60;;;10.00;99.90;;;;;;5015559;28;20195;-70
2022/11/13 02:52:31;;;;;;;12.10;10.93;;;10.00;99.90;;;;;;5020205;28;20177;-70
2022/11/13 02:54:56;;;;;;;12.90;11.60;;;10.00;99.90;;;;;;5033785;28;20444;-70
2022/11/13 02:57:22;;;;;;;12.90;11.50;;;10.00;99.90;;;;;;5034390;28;20187;-70
2022/11/13 02:59:48;;;;;;;12.27;11.17;;;9.90;99.90;;;;;;5033702;28;20306;-70
2022/11/13 03:02:13;;;;;;;12.27;10.87;;;9.90;99.90;;;;;;5034828;28;20546;-70
2022/11/13 03:04:39;;;;;;;11.97;10.77;;;9.90;99.90;;;;;;5033427;28;20179;-70
2022/11/13 03:07:04;;;;;;;12.87;11.57;;;9.90;99.90;;;;;;5040679;28;20220;-70
2022/11/13 03:09:30;;;;;;;12.53;11.40;;;9.90;99.90;;;;;;5053527;28;20191;-71
2022/11/13 03:11:56;;;;;;;12.47;11.27;;;9.80;99.90;;;;;;5054441;28;20296;-70
2022/11/13 03:14:22;;;;;;;13.03;11.83;;;9.80;99.90;;;;;;5053460;28;20217;-70
2022/11/13 03:16:47;;;;;;;12.37;11.17;;;9.80;99.90;;;;;;5036014;28;20764;-70
2022/11/13 03:19:13;;;;;;;12.10;11.00;;;9.90;99.90;;;;;;5054525;28;20700;-70
2022/11/13 03:21:39;;;;;;;12.50;11.00;;;9.80;99.90;;;;;;5052370;28;20228;-70
2022/11/13 03:24:05;;;;;;;12.77;11.40;;;9.80;99.90;;;;;;5053873;28;20669;-70
2022/11/13 03:26:31;;;;;;;13.03;11.53;;;9.80;99.90;;;;;;5053331;28;20491;-71
2022/11/13 03:28:57;;;;;;;12.83;11.57;;;9.80;99.90;;;;;;5053832;28;20509;-70
2022/11/13 03:31:22;;;;;;;12.57;11.23;;;9.80;99.90;;;;;;5053285;28;20195;-70
2022/11/13 03:33:52;;;;;;;12.10;10.90;;;9.70;99.90;;;;;;5053293;28;20452;-70
2022/11/13 03:36:18;;;;;;;12.23;11.13;;;9.70;99.90;;;;;;5036367;28;20530;-70
2022/11/13 03:38:44;;;;;;;12.00;10.80;;;9.70;99.90;;;;;;5053136;28;20429;-70
2022/11/13 03:41:09;;;;;;;13.40;12.00;;;9.70;99.90;;;;;;5053934;28;20409;-70
2022/11/13 03:43:35;;;;;;;12.30;11.20;;;9.70;99.90;;;;;;5053020;28;20184;-70
2022/11/13 03:46:01;;;;;;;12.87;11.73;;;9.60;99.90;;;;;;5053899;28;20414;-70
2022/11/13 03:48:27;;;;;;;12.57;11.50;;;9.60;99.90;;;;;;5047617;28;20194;-69
2022/11/13 03:50:54;;;;;;;13.40;12.17;;;9.70;99.90;;;;;;5033043;28;20180;-70
2022/11/13 03:53:19;;;;;;;13.37;12.17;;;9.50;99.90;;;;;;5050153;28;20666;-70
2022/11/13 03:55:46;;;;;;;13.60;12.20;;;9.50;99.90;;;;;;5052547;28;20409;-70
2022/11/13 03:58:12;;;;;;;15.13;12.17;;;9.50;99.90;;;;;;5053540;28;20205;-70
2022/11/13 04:00:39;;;;;;;13.70;12.43;;;9.60;99.90;;;;;;5052760;28;20415;-70
2022/11/13 04:03:05;;;;;;;13.20;12.00;;;9.50;99.90;;;;;;5052427;28;20445;-70
2022/11/13 04:05:31;;;;;;;13.40;12.20;;;9.50;99.90;;;;;;5034379;28;20903;-73
2022/11/13 04:07:57;;;;;;;13.03;11.93;;;9.50;99.90;;;;;;5052261;28;20227;-70
2022/11/13 04:10:23;;;;;;;14.60;12.30;;;9.40;99.90;;;;;;5053048;28;20723;-70
2022/11/13 04:12:48;;;;;;;14.23;12.83;;;9.40;99.90;;;;;;5052365;28;20270;-70
2022/11/13 04:15:14;;;;;;;13.30;11.90;;;9.40;99.90;;;;;;5053311;28;20412;-70
2022/11/13 04:17:40;;;;;;;13.00;11.90;;;9.40;99.90;;;;;;5051889;28;20177;-70
2022/11/13 04:20:07;;;;;;;13.37;12.07;;;9.40;99.90;;;;;;5053106;28;20483;-69
2022/11/13 04:22:32;;;;;;;12.10;11.00;;;9.40;99.90;;;;;;5045559;28;20182;-73
2022/11/13 04:24:58;;;;;;;12.00;10.97;;;9.40;99.90;;;;;;5033467;28;20402;-70
2022/11/13 04:27:24;;;;;;;12.60;11.40;;;9.40;99.90;;;;;;5032818;28;20425;-70
2022/11/13 04:29:49;;;;;;;12.80;11.50;;;9.40;99.90;;;;;;5032567;28;20205;-70
2022/11/13 04:32:15;;;;;;;12.00;10.93;;;9.50;99.90;;;;;;5033057;28;20224;-70
2022/11/13 04:34:41;;;;;;;11.80;10.67;;;9.40;99.90;;;;;;5050914;28;20229;-70
2022/11/13 04:37:07;;;;;;;11.30;10.10;;;9.40;99.90;;;;;;5052889;28;20420;-70
2022/11/13 04:39:32;;;;;;;11.40;10.40;;;9.40;99.90;;;;;;5045256;28;20214;-73
2022/11/13 04:44:42;;;;;;;10.33;9.33;;;9.40;99.90;;;;;;5032058;28;20250;-70
2022/11/13 04:47:08;;;;;;;10.43;9.53;;;9.40;99.90;;;;;;5032775;28;20498;-70
2022/11/13 04:49:34;;;;;;;10.73;9.70;;;9.30;99.90;;;;;;4998158;28;20175;-73
2022/11/13 04:52:00;;;;;;;11.87;10.03;;;9.30;99.90;;;;;;5032615;28;20410;-70
2022/11/13 04:54:26;;;;;;;9.77;8.87;;;9.30;99.90;;;;;;5032311;28;20492;-70
2022/11/13 04:56:53;;;;;;;13.17;9.77;;;9.30;99.90;;;;;;5041124;28;20177;-69
2022/11/13 04:59:19;;;;;;;9.90;9.00;;;9.30;99.90;;;;;;5052545;28;20223;-69
2022/11/13 05:01:45;;;;;;;11.33;10.20;;;9.30;99.90;;;;;;5051383;28;20507;-69
2022/11/13 05:04:14;;;;;;;11.70;10.70;;;9.30;99.90;;;;;;5051437;28;20194;-69
2022/11/13 05:06:41;;;;;;;11.10;10.10;;;9.20;99.90;;;;;;5050516;28;20226;-69
2022/11/13 05:09:07;;;;;;;11.27;10.17;;;9.30;99.90;;;;;;5052601;28;20404;-70
2022/11/13 05:11:32;;;;;;;11.03;9.93;;;9.20;99.90;;;;;;5052238;28;20887;-72
2022/11/13 05:13:58;;;;;;;12.23;9.63;;;9.20;99.90;;;;;;5041135;28;20206;-69
2022/11/13 05:16:24;;;;;;;10.97;9.87;;;9.20;99.90;;;;;;5047323;28;20779;-69
2022/11/13 05:18:49;;;;;;;11.00;10.00;;;9.20;99.90;;;;;;5033532;28;20206;-69
2022/11/13 05:21:15;;;;;;;11.40;10.23;;;9.20;99.90;;;;;;5046369;28;20174;-69
2022/11/13 05:23:41;;;;;;;11.40;10.33;;;9.30;99.90;;;;;;5031239;28;20178;-70
2022/11/13 05:26:09;;;;;;;12.33;10.20;;;9.20;99.90;;;;;;5014454;28;20618;-69
2022/11/13 05:28:36;;;;;;;11.63;10.43;;;9.20;99.90;;;;;;5030967;28;20630;-72
2022/11/13 05:31:03;;;;;;;11.27;10.07;;;9.20;99.90;;;;;;5040405;28;20424;-69
2022/11/13 05:33:28;;;;;;;11.03;9.87;;;9.20;99.90;;;;;;5046882;28;20470;-70
2022/11/13 05:35:54;;;;;;;11.93;10.53;;;9.20;99.90;;;;;;5050272;28;20436;-69
2022/11/13 05:38:20;;;;;;;11.50;10.50;;;9.20;99.90;;;;;;5052172;28;20173;-69
2022/11/13 05:40:45;;;;;;;11.90;10.80;;;9.10;99.90;;;;;;5051411;28;20188;-69
2022/11/13 05:43:11;;;;;;;11.17;10.17;;;9.10;99.90;;;;;;5051882;28;20181;-69
2022/11/13 05:45:37;;;;;;;12.03;10.70;;;9.20;99.90;;;;;;5051396;28;20536;-72
2022/11/13 05:48:03;;;;;;;12.00;10.80;;;9.10;99.90;;;;;;5051027;28;20203;-70
2022/11/13 05:50:28;;;;;;;11.87;10.53;;;9.10;99.90;;;;;;5046434;28;20188;-69
2022/11/13 05:52:54;;;;;;;12.63;10.87;;;9.10;99.90;;;;;;5031126;28;20217;-69
2022/11/13 05:55:20;;;;;;;12.10;11.00;;;9.00;99.90;;;;;;5050331;28;20213;-69
2022/11/13 05:57:45;;;;;;;10.87;9.90;;;9.10;99.90;;;;;;5051038;28;20185;-69
2022/11/13 06:00:11;;;;;;;10.30;9.30;;;9.10;99.90;;;;;;5052053;28;20174;-69
2022/11/13 06:02:37;;;;;;;11.00;9.30;;;9.10;99.90;;;;;;5050402;28;20247;-72
2022/11/13 06:05:03;;;;;;;10.23;9.20;;;9.00;99.90;;;;;;5051116;28;20404;-69
2022/11/13 06:07:29;;;;;;;10.37;9.40;;;9.00;99.90;;;;;;5051578;28;20560;-69
2022/11/13 06:09:54;;;;;;;9.43;8.70;;;9.00;99.90;;;;;;5050642;28;20463;-69
2022/11/13 06:12:20;;;;;;;10.10;9.10;;;9.00;99.90;;;;;;5051673;28;20515;-69
2022/11/13 06:14:46;;;;;;;9.90;9.00;;;9.10;99.90;;;;;;5049349;28;20753;-69
2022/11/13 06:17:11;;;;;;;10.07;9.23;;;9.00;99.90;;;;;;5051864;28;20622;-69
2022/11/13 06:19:37;;;;;;;10.70;9.70;;;9.00;99.90;;;;;;5049322;28;20242;-72
2022/11/13 06:22:03;;;;;;;9.57;8.67;;;9.00;99.90;;;;;;5050182;28;20224;-69
2022/11/13 06:24:28;;;;;;;10.00;9.00;;;9.00;99.80;;;;;;5051297;28;20170;-69
2022/11/13 06:26:54;;;;;;;10.63;9.63;;;9.00;99.90;;;;;;5050793;28;20263;-69
2022/11/13 06:29:20;;;;;;;10.00;9.03;;;8.90;99.90;;;;;;5033682;28;20181;-69
2022/11/13 06:31:45;;;;;;;9.57;8.77;;;8.90;99.70;;;;;;5049746;28;20338;-70
2022/11/13 06:34:11;;;;;;;10.90;9.80;;;8.90;99.80;;;;;;5032218;28;20222;-71
2022/11/13 06:36:37;;;;;;;10.60;9.57;;;8.80;99.90;;;;;;5051173;28;20177;-69
2022/11/13 06:39:08;;;;;;;10.30;9.40;;;8.80;99.90;;;;;;5049808;28;20212;-69
2022/11/13 06:41:34;;;;;;;9.60;8.60;;;8.80;99.90;;;;;;5053464;28;20823;-69
2022/11/13 06:44:00;;;;;;;9.87;8.97;;;8.80;99.90;;;;;;5051627;28;20517;-69
2022/11/13 06:46:27;;;;;;;8.80;8.10;;;8.80;99.90;;;;;;5017345;28;20305;-69
2022/11/13 06:48:53;;;;;;;11.30;9.27;;;8.80;99.90;;;;;;5034147;28;20424;-69
2022/11/13 06:51:28;;;;;;;10.40;9.33;;;8.70;99.90;;;;;;5048471;28;20505;-69
2022/11/13 06:53:56;;;;;;;10.07;9.07;;;8.70;99.90;;;;;;5051948;28;20829;-69
2022/11/13 06:56:23;;;;;;;10.90;9.77;;;8.70;99.90;;;;;;5054682;28;20496;-69
2022/11/13 06:58:49;;;;;;;11.27;10.17;;;8.80;99.90;;;;;;5053874;28;20418;-69
2022/11/13 07:01:19;;;;;;;9.80;8.90;;;8.90;99.90;;;;;;5052840;28;20428;-70
2022/11/13 07:03:45;;;;;;;10.83;9.40;;;8.90;99.90;;;;;;5052676;28;20193;-70
2022/11/13 07:06:14;;;;;;;9.70;8.70;;;8.80;99.90;;;;;;5036581;28;20412;-69
2022/11/13 07:08:41;;;;;;;9.73;8.83;;;8.80;99.90;;;;;;5054282;28;20435;-72
2022/11/13 07:11:10;;;;;;;9.30;8.40;;;8.80;99.90;;;;;;5053833;28;20442;-69
2022/11/13 07:13:37;;;;;;;10.03;9.23;;;8.80;99.90;;;;;;5052687;28;20509;-69
2022/11/13 07:16:04;;;;;;;9.83;8.83;;;8.90;99.90;;;;;;5035642;28;20416;-69
2022/11/13 07:18:30;;;;;;;9.97;8.87;;;8.80;99.90;;;;;;5054274;28;20391;-70
2022/11/13 07:20:57;;;;;;;10.13;9.23;;;8.80;99.90;;;;;;5050707;28;20477;-69
2022/11/13 07:23:23;;;;;;;9.90;9.00;;;8.80;99.90;;;;;;5035723;28;20436;-69
2022/11/13 07:25:52;;;;;;;10.30;9.40;;;8.80;99.90;;;;;;5035482;28;20412;-70
2022/11/13 07:28:18;;;;;;;10.50;9.50;;;8.80;99.90;;;;;;5054156;28;20495;-69
2022/11/13 07:30:43;;;;;;;10.87;9.87;;;8.80;99.90;;;;;;5027686;28;20529;-73
2022/11/13 07:33:09;;;;;;;11.63;10.40;;;8.90;99.90;;;;;;5032313;28;20213;-69
2022/11/13 07:35:35;;;;;;;11.57;10.47;;;8.90;99.90;;;;;;5032506;28;20240;-69
2022/11/13 07:38:00;;;;;;;12.20;11.00;;;8.90;99.90;;;;;;5033488;28;20177;-69
2022/11/13 07:40:26;;;;;;;12.50;11.20;;;9.00;99.90;;;;;;5043229;28;20220;-69
2022/11/13 07:42:59;;;;;;;12.30;11.17;;;9.00;99.90;;;;;;5052994;28;20178;-69
2022/11/13 07:45:26;;;;;;;14.40;13.00;;;9.00;99.90;;;;;;5035938;28;20173;-69
2022/11/13 07:48:00;;;;;;;13.40;12.10;;;9.00;99.90;;;;;;5050189;28;20439;-69
2022/11/13 07:50:31;;;;;;;12.60;11.50;;;9.00;99.90;;;;;;5039779;28;20798;-69
2022/11/13 07:52:59;;;;;;;13.47;11.67;;;9.00;99.90;;;;;;5051561;28;20452;-69
2022/11/13 07:55:25;;;;;;;14.00;12.53;;;9.00;99.90;;;;;;5051434;28;20433;-69
2022/11/13 07:57:55;;;;;;;11.67;10.47;;;9.10;99.90;;;;;;5042370;28;20432;-70
2022/11/13 08:00:21;;;;;;;13.77;11.93;;;9.10;99.90;;;;;;5021143;28;20417;-69
2022/11/13 08:02:47;;;;;;;11.03;9.97;;;9.10;99.90;;;;;;5049553;28;20776;-71
2022/11/13 08:05:14;;;;;;;11.70;10.50;;;9.30;99.90;;;;;;5053146;28;20638;-70
2022/11/13 08:07:40;;;;;;;12.03;10.93;;;9.20;99.90;;;;;;5029086;28;20233;-70
2022/11/13 08:10:06;;;;;;;11.87;10.77;;;9.30;99.90;;;;;;5051580;28;20444;-69
2022/11/13 08:12:31;;;;;;;12.53;11.43;;;9.30;99.90;;;;;;5041691;28;20428;-70
2022/11/13 08:14:57;;;;;;;13.00;11.80;;;9.40;99.90;;;;;;5032500;28;20888;-70
2022/11/13 08:17:23;;;;;;;12.00;11.00;;;9.50;99.90;;;;;;5051297;28;20216;-69
2022/11/13 08:19:48;;;;;;;10.80;9.90;;;9.50;99.90;;;;;;5050819;28;21097;-70
2022/11/13 08:22:14;;;;;;;12.13;10.90;;;9.70;99.90;;;;;;5049124;28;20182;-71
2022/11/13 08:24:40;;;;;;;12.87;11.60;;;9.70;99.90;;;;;;5033567;28;20190;-68
2022/11/13 08:27:06;;;;;;;12.30;11.40;;;9.90;99.90;;;;;;5032788;28;20638;-68
2022/11/13 08:29:31;;;;;;;11.13;10.00;;;10.30;99.90;;;;;;5052771;28;20183;-68
2022/11/13 08:31:57;;;;;;;10.23;9.33;;;11.00;99.90;;;;;;5049639;28;20889;-68
2022/11/13 08:34:23;;;;;;;9.00;8.10;;;11.90;99.90;;;;;;5014921;28;20717;-68
2022/11/13 08:36:48;;;;;;;9.00;8.30;;;12.70;99.90;;;;;;5032905;28;20188;-71
2022/11/13 08:39:14;;;;;;;10.47;9.67;;;14.00;99.90;;;;;;5036599;28;20275;-69
2022/11/13 08:41:40;;;;;;;7.70;7.10;;;14.60;99.90;;;;;;5050987;28;20186;-68
2022/11/13 08:44:05;;;;;;;8.43;7.63;;;15.60;99.90;;;;;;5049387;28;20234;-68
2022/11/13 08:46:31;;;;;;;9.07;8.20;;;16.60;97.10;;;;;;5032766;28;20225;-68
2022/11/13 08:48:57;;;;;;;10.60;9.70;;;17.40;93.40;;;;;;5031936;28;20661;-69
2022/11/13 08:51:23;;;;;;;12.00;10.03;;;18.20;85.30;;;;;;5046843;28;20185;-69
2022/11/13 08:53:48;;;;;;;8.73;8.03;;;19.30;78.90;;;;;;5051215;28;20304;-71
2022/11/13 08:56:14;;;;;;;9.00;8.20;;;19.70;81.90;;;;;;5052572;28;20622;-68
2022/11/13 08:58:40;;;;;;;8.43;7.80;;;19.80;79.60;;;;;;5052161;28;20174;-68
2022/11/13 09:01:05;;;;;;;9.13;8.43;;;19.90;80.00;;;;;;5038847;28;20174;-69
2022/11/13 09:03:31;;;;;;;9.13;8.43;;;20.10;75.80;;;;;;5014093;28;20181;-69
2022/11/13 09:05:57;;;;;;;10.10;9.23;;;20.40;73.60;;;;;;5039119;28;20177;-68
2022/11/13 09:08:22;;;;;;;10.87;9.97;;;20.70;72.20;;;;;;5051970;28;20846;-68
2022/11/13 09:10:48;;;;;;;11.03;10.10;;;21.30;65.40;;;;;;5051140;28;20182;-72
2022/11/13 09:13:14;;;;;;;10.50;9.70;;;21.60;60.20;;;;;;5050745;28;20244;-69
2022/11/13 09:15:41;;;;;;;11.27;10.37;;;21.30;60.20;;;;;;5048248;28;20699;-69
2022/11/13 09:18:06;;;;;;;11.13;10.23;;;20.70;59.40;;;;;;5044776;28;20558;-69
2022/11/13 09:20:33;;;;;;;11.50;10.50;;;20.00;60.00;;;;;;5027939;28;20459;-68
2022/11/13 09:23:01;;;;;;;10.73;9.93;;;19.70;61.20;;;;;;5039423;28;20182;-69
2022/11/13 09:25:29;;;;;;;10.03;9.23;;;19.30;63.60;;;;;;5034823;28;20418;-69
2022/11/13 09:27:57;;;;;;;12.63;11.53;;;19.10;64.20;;;;;;5032021;28;20548;-69
2022/11/13 09:30:24;;;;;;;12.10;11.03;;;18.30;63.50;;;;;;5032539;28;20436;-69
2022/11/13 09:32:54;;;;;;;10.40;9.43;;;17.70;66.50;;;;;;4997352;28;20428;-72
2022/11/13 09:35:32;;;;;;;10.50;9.70;;;17.40;68.60;;;;;;5039628;28;20413;-68
2022/11/13 09:38:03;;;;;;;10.80;9.90;;;17.00;69.40;;;;;;5049186;28;20424;-68
2022/11/13 09:40:36;;;;;;;11.70;10.70;;;16.60;80.30;;;;;;5047745;28;20462;-69
2022/11/13 09:43:04;;;;;;;10.60;9.67;;;16.60;76.80;;;;;;5038937;28;20451;-68
2022/11/13 09:45:31;;;;;;;10.40;9.40;;;16.50;76.40;;;;;;5043712;28;20447;-67
2022/11/13 09:48:07;;;;;;;10.10;9.30;;;16.40;75.60;;;;;;5030898;28;20419;-68
2022/11/13 09:50:33;;;;;;;10.60;9.70;;;16.20;75.40;;;;;;5040676;28;20892;-67
2022/11/13 09:52:59;;;;;;;10.53;9.63;;;16.10;76.80;;;;;;5041761;28;20483;-67
2022/11/13 09:55:31;;;;;;;9.40;8.60;;;16.10;76.10;;;;;;5033071;28;20185;-67
2022/11/13 09:58:10;;;;;;;10.40;9.50;;;16.20;78.20;;;;;;5051161;28;20169;-67
2022/11/13 10:00:36;;;;;;;10.33;9.40;;;16.20;79.50;;;;;;5050752;28;20526;-67
2022/11/13 10:03:51;;;;;;;10.27;9.37;;;16.40;78.30;;;;;;4999182;28;20459;-68
2022/11/13 10:06:52;;;;;;;10.03;9.23;;;16.50;78.10;;;;;;4960132;28;20443;-68
2022/11/13 10:09:35;;;;;;;10.60;9.70;;;16.70;76.70;;;;;;4967225;28;20532;-67
2022/11/13 10:12:06;;;;;;;9.63;8.83;;;16.90;75.00;;;;;;4966143;28;20443;-68
2022/11/13 10:14:42;;;;;;;9.53;8.73;;;17.00;74.90;;;;;;4967841;28;20472;-67
2022/11/13 10:17:20;;;;;;;10.57;9.63;;;17.10;77.00;;;;;;4967509;28;20460;-67
2022/11/13 10:19:58;;;;;;;10.73;9.83;;;17.30;76.80;;;;;;4959743;28;20940;-67
2022/11/13 10:22:40;;;;;;;10.00;9.20;;;17.40;73.80;;;;;;4961019;28;20538;-67
2022/11/13 10:25:11;;;;;;;9.80;8.93;;;17.60;74.90;;;;;;4961892;28;20436;-68
2022/11/13 10:27:37;;;;;;;11.00;9.97;;;17.80;72.70;;;;;;4954892;28;20840;-67
2022/11/13 10:30:12;;;;;;;9.90;9.00;;;17.90;73.40;;;;;;4962327;28;20440;-67
2022/11/13 10:32:37;;;;;;;9.23;8.43;;;18.10;74.90;;;;;;4974094;28;20434;-67
2022/11/13 10:35:06;;;;;;;10.37;9.40;;;18.20;74.10;;;;;;4973270;28;20644;-67
2022/11/13 10:37:53;;;;;;;10.53;9.60;;;18.40;71.00;;;;;;5029900;28;20198;-67
2022/11/13 10:40:25;;;;;;;9.90;8.97;;;18.50;74.00;;;;;;5054529;28;20404;-67
2022/11/13 10:42:51;;;;;;;9.47;8.53;;;18.70;70.80;;;;;;5054275;28;20428;-67
2022/11/13 10:45:19;;;;;;;9.30;8.60;;;18.80;69.80;;;;;;5054279;28;20470;-67
2022/11/13 10:47:50;;;;;;;8.80;8.00;;;18.90;70.30;;;;;;5054325;28;20268;-67
2022/11/13 10:50:27;;;;;;;7.60;7.00;;;19.10;67.90;;;;;;5054109;28;20404;-67
2022/11/13 10:52:54;;;;;;;9.53;8.80;;;19.30;67.10;;;;;;5052968;28;20493;-71
2022/11/13 10:55:37;;;;;;;8.63;7.93;;;19.70;67.90;;;;;;5054609;28;20404;-68
2022/11/13 10:58:15;;;;;;;9.50;8.80;;;20.10;67.00;;;;;;5053176;28;20436;-68
2022/11/13 11:00:43;;;;;;;8.20;7.60;;;20.60;66.30;;;;;;5037648;28;20438;-68
2022/11/13 11:03:19;;;;;;;9.90;9.10;;;21.00;64.40;;;;;;5053543;28;20924;-68
2022/11/13 11:06:00;;;;;;;9.23;8.53;;;21.20;62.50;;;;;;5053899;28;20437;-67
2022/11/13 11:08:34;;;;;;;10.40;9.40;;;21.40;63.20;;;;;;5054673;28;20464;-67
2022/11/13 11:14:21;;;;;;;8.97;8.10;;;22.00;61.60;;;;;;5048793;28;20518;-69
2022/11/13 11:16:50;;;;;;;8.47;7.87;;;22.10;59.90;;;;;;5050335;28;20432;-66
2022/11/13 11:19:19;;;;;;;8.50;7.87;;;22.30;59.90;;;;;;5052027;28;20439;-67
2022/11/13 11:21:46;;;;;;;7.43;6.90;;;22.40;59.80;;;;;;5045033;28;20464;-70
2022/11/13 11:24:27;;;;;;;8.30;7.70;;;22.50;59.40;;;;;;5051878;28;20431;-69
2022/11/13 11:27:21;;;;;;;8.37;7.73;;;22.50;59.00;;;;;;5029557;28;20833;-68
2022/11/13 11:29:59;;;;;;;15.47;13.90;;;22.50;59.00;;;;;;5046809;28;20928;-67
2022/11/13 11:33:16;;;;;;;9.07;8.27;;;22.40;59.30;;;;;;5040831;28;20433;-71
2022/11/13 11:35:45;;;;;;;29.83;24.57;;;22.30;59.20;;;;;;5011307;28;20447;-68
2022/11/13 11:38:35;;;;;;;41.70;35.33;;;22.10;58.60;;;;;;5038488;28;20540;-68
2022/11/13 11:41:13;;;;;;;10.77;9.67;;;22.10;59.90;;;;;;5049128;28;20545;-68
2022/11/13 11:44:03;;;;;;;7.47;6.90;;;22.10;60.10;;;;;;5049623;28;20458;-68
2022/11/13 11:46:29;;;;;;;7.37;6.77;;;22.10;60.00;;;;;;5034074;28;20748;-67
2022/11/13 11:49:00;;;;;;;6.80;6.40;;;22.00;59.80;;;;;;5043216;28;20419;-69
2022/11/13 11:51:37;;;;;;;7.57;6.87;;;22.10;58.20;;;;;;5049280;28;20554;-67
2022/11/13 11:54:17;;;;;;;7.20;6.07;;;22.00;57.90;;;;;;5032431;28;20474;-67
2022/11/13 11:56:56;;;;;;;5.83;5.47;;;22.00;57.90;;;;;;5052627;28;20509;-67
2022/11/13 12:00:05;;;;;;;5.43;5.13;;;21.90;57.90;;;;;;5032809;28;20413;-67
2022/11/13 12:03:06;;;;;;;5.87;5.57;;;21.80;58.50;;;;;;5048215;28;20416;-67
2022/11/13 12:05:50;;;;;;;6.40;6.00;;;21.60;63.30;;;;;;4956087;28;20431;-67
2022/11/13 12:08:30;;;;;;;6.00;5.60;;;21.60;63.70;;;;;;5036562;28;20464;-67
2022/11/13 12:11:09;;;;;;;6.07;5.43;;;21.50;62.30;;;;;;5049020;28;20408;-67
2022/11/13 12:14:19;;;;;;;5.70;5.37;;;21.50;66.50;;;;;;5044074;28;20474;-67
2022/11/13 12:17:20;;;;;;;7.07;6.37;;;21.40;64.50;;;;;;5041112;28;20428;-67
2022/11/13 12:19:58;;;;;;;6.80;6.30;;;21.30;63.60;;;;;;5043483;28;20432;-67
2022/11/13 12:23:03;;;;;;;6.83;6.33;;;21.10;63.70;;;;;;5042650;28;20397;-67
2022/11/13 12:25:45;;;;;;;6.73;6.23;;;21.00;65.20;;;;;;5028900;28;20435;-67
2022/11/13 12:28:19;;;;;;;6.73;6.23;;;21.00;69.10;;;;;;5043458;28;20416;-67
2022/11/13 12:30:52;;;;;;;6.33;5.93;;;20.90;68.50;;;;;;5043376;28;20496;-67
2022/11/13 12:33:44;;;;;;;6.43;6.03;;;20.90;67.00;;;;;;5039316;28;21128;-67
2022/11/13 12:36:12;;;;;;;6.53;5.93;;;20.80;69.30;;;;;;5040106;28;20431;-67
2022/11/13 12:38:50;;;;;;;8.17;7.47;;;20.70;68.60;;;;;;5040674;28;20801;-68
2022/11/13 12:41:31;;;;;;;7.77;7.17;;;20.70;68.90;;;;;;5021358;28;20864;-67
2022/11/13 12:44:28;;;;;;;8.13;7.53;;;20.60;73.60;;;;;;5040985;28;20411;-67
2022/11/13 12:46:56;;;;;;;7.67;7.07;;;20.50;69.60;;;;;;5043720;28;20781;-67
2022/11/13 12:49:28;;;;;;;16.43;14.70;;;20.40;69.70;;;;;;5046564;28;20491;-67
2022/11/13 12:52:19;;;;;;;6.77;6.27;;;20.20;70.00;;;;;;5040491;28;20516;-66
2022/11/13 12:54:45;;;;;;;6.43;5.93;;;20.00;69.80;;;;;;5040965;28;20462;-67
2022/11/13 12:57:11;;;;;;;5.37;5.07;;;19.80;70.90;;;;;;5040324;28;20421;-66